Time;durP1;ratioP1;P1;durP2;ratioP2;P2;SDS_P1;SDS_P2;PMS_P1;PMS_P2;Temp;Humidity;BMP_temperature;BMP_pressure;BME280_temperature;BME280_humidity;BME280_pressure;Samples;Min_cycle;Max_cycle;Signal;HPM_P1;HPM_P2
2022/10/28 00:01:53;;;;;;;11.60;10.40;;;12.10;99.90;;;;;;4956601;28;20205;-83
2022/10/28 00:04:20;;;;;;;11.13;10.17;;;12.10;99.90;;;;;;4969344;28;20268;-83
2022/10/28 00:06:46;;;;;;;11.37;10.40;;;12.10;99.90;;;;;;4953532;29;20215;-83
2022/10/28 00:09:13;;;;;;;11.63;10.63;;;12.10;99.90;;;;;;4956483;28;20230;-83
2022/10/28 00:11:40;;;;;;;11.37;10.37;;;12.10;99.90;;;;;;4946816;28;20200;-83
2022/10/28 00:14:07;;;;;;;11.43;10.40;;;12.10;99.90;;;;;;4951758;28;20255;-83
2022/10/28 00:16:37;;;;;;;11.83;10.83;;;12.10;99.90;;;;;;4972909;28;20207;-83
2022/10/28 00:19:05;;;;;;;10.83;9.93;;;12.10;99.90;;;;;;4969056;28;20266;-83
2022/10/28 00:21:35;;;;;;;11.50;10.60;;;12.10;99.90;;;;;;4969342;28;20624;-83
2022/10/28 00:24:02;;;;;;;11.03;10.23;;;12.20;99.90;;;;;;4968949;28;20193;-83
2022/10/28 00:26:30;;;;;;;10.70;10.00;;;12.20;99.90;;;;;;4974319;28;20187;-83
2022/10/28 00:29:00;;;;;;;11.57;10.47;;;12.10;99.90;;;;;;4956476;28;20247;-82
2022/10/28 00:31:28;;;;;;;10.57;9.80;;;12.20;99.90;;;;;;4955192;28;20204;-83
2022/10/28 00:33:58;;;;;;;11.20;10.20;;;12.20;99.90;;;;;;4958624;28;20206;-83
2022/10/28 00:36:27;;;;;;;11.73;10.73;;;12.20;99.90;;;;;;4955221;28;20196;-83
2022/10/28 00:38:55;;;;;;;11.60;10.70;;;12.20;99.90;;;;;;4972435;28;20239;-83
2022/10/28 00:41:26;;;;;;;11.63;10.53;;;12.10;99.90;;;;;;4972543;28;20688;-83
2022/10/28 00:43:55;;;;;;;11.00;10.20;;;12.10;99.90;;;;;;4974073;28;20209;-83
2022/10/28 00:46:28;;;;;;;12.77;11.00;;;12.00;99.90;;;;;;4959371;28;20213;-83
2022/10/28 00:49:02;;;;;;;10.87;10.00;;;11.90;99.90;;;;;;4964756;28;20219;-83
2022/10/28 00:51:32;;;;;;;11.10;10.20;;;11.90;99.90;;;;;;4972032;28;20204;-83
2022/10/28 00:53:59;;;;;;;11.67;10.60;;;11.80;99.90;;;;;;4977731;28;20208;-82
2022/10/28 00:56:28;;;;;;;11.10;10.20;;;11.80;99.90;;;;;;4980094;28;20198;-83
2022/10/28 00:58:57;;;;;;;11.17;10.33;;;11.80;99.90;;;;;;4961342;28;20239;-83
2022/10/28 01:01:24;;;;;;;10.90;10.10;;;11.80;99.90;;;;;;4958395;28;20207;-83
2022/10/28 01:03:52;;;;;;;11.53;10.50;;;11.80;99.90;;;;;;4972514;28;20211;-83
2022/10/28 01:06:20;;;;;;;12.00;11.00;;;11.70;99.90;;;;;;4972317;28;20766;-83
2022/10/28 01:08:47;;;;;;;11.63;10.73;;;11.70;99.90;;;;;;4954677;28;20866;-83
2022/10/28 01:11:53;;;;;;;11.77;10.87;;;11.60;99.90;;;;;;4959209;28;20203;-83
2022/10/28 01:14:31;;;;;;;12.53;11.50;;;11.70;99.90;;;;;;4959826;28;20207;-82
2022/10/28 01:17:27;;;;;;;11.80;11.00;;;11.60;99.90;;;;;;4975855;28;20199;-83
2022/10/28 01:20:27;;;;;;;12.90;11.70;;;11.60;99.90;;;;;;4975704;28;20215;-82
2022/10/28 01:23:01;;;;;;;11.60;10.70;;;11.50;99.90;;;;;;4955762;28;20258;-83
2022/10/28 01:26:00;;;;;;;12.13;11.03;;;11.50;99.90;;;;;;4973100;28;20203;-83
2022/10/28 01:28:40;;;;;;;13.03;11.93;;;11.50;99.90;;;;;;4968078;28;20240;-83
2022/10/28 01:31:25;;;;;;;11.47;10.57;;;11.40;99.90;;;;;;4959064;28;20202;-83
2022/10/28 01:33:57;;;;;;;11.80;10.90;;;11.40;99.90;;;;;;4974885;28;20191;-83
2022/10/28 01:36:36;;;;;;;11.50;10.63;;;11.40;99.90;;;;;;4956350;28;20254;-83
2022/10/28 01:39:13;;;;;;;12.93;11.63;;;11.40;99.90;;;;;;4958644;28;20579;-82
2022/10/28 01:41:50;;;;;;;12.30;11.33;;;11.40;99.90;;;;;;4954860;28;20308;-83
2022/10/28 01:44:24;;;;;;;12.20;11.30;;;11.30;99.90;;;;;;4955708;28;20218;-82
2022/10/28 01:47:00;;;;;;;11.83;10.83;;;11.30;99.90;;;;;;4956934;28;20200;-82
2022/10/28 01:49:38;;;;;;;12.00;10.90;;;11.30;99.90;;;;;;4953774;28;20217;-83
2022/10/28 01:52:09;;;;;;;11.43;10.47;;;11.30;99.90;;;;;;4972591;28;20206;-83
2022/10/28 01:54:38;;;;;;;12.53;11.30;;;11.30;99.90;;;;;;4955308;28;20233;-83
2022/10/28 01:57:05;;;;;;;12.03;11.13;;;11.30;99.90;;;;;;4979509;28;20191;-82
2022/10/28 01:59:34;;;;;;;12.50;11.40;;;11.30;99.90;;;;;;4961273;28;20253;-84
2022/10/28 02:02:02;;;;;;;12.17;11.17;;;11.20;99.90;;;;;;4957517;28;20202;-83
2022/10/28 02:04:29;;;;;;;12.70;11.73;;;11.20;99.90;;;;;;4971604;28;20253;-83
2022/10/28 02:06:59;;;;;;;12.70;11.57;;;11.10;99.90;;;;;;4970799;28;20195;-83
2022/10/28 02:09:35;;;;;;;13.40;12.30;;;11.10;99.90;;;;;;4970365;28;20215;-83
2022/10/28 02:12:25;;;;;;;12.17;11.33;;;11.00;99.90;;;;;;4970867;28;20672;-83
2022/10/28 02:15:12;;;;;;;13.13;11.90;;;11.00;99.90;;;;;;4964169;28;20720;-83
2022/10/28 02:17:51;;;;;;;12.53;11.43;;;11.00;99.90;;;;;;4951382;28;20195;-83
2022/10/28 02:20:27;;;;;;;13.77;12.67;;;11.00;99.90;;;;;;4953166;28;20218;-83
2022/10/28 02:23:00;;;;;;;13.53;12.43;;;10.90;99.90;;;;;;4949891;29;20691;-83
2022/10/28 02:25:32;;;;;;;13.47;12.23;;;10.90;99.90;;;;;;4956284;28;20686;-83
2022/10/28 02:28:04;;;;;;;13.90;12.67;;;10.90;99.90;;;;;;4974245;28;20201;-83
2022/10/28 02:30:37;;;;;;;12.73;11.77;;;10.90;99.90;;;;;;4966051;28;20198;-83
2022/10/28 02:33:09;;;;;;;13.07;11.97;;;10.80;99.90;;;;;;4975473;28;20194;-83
2022/10/28 02:35:40;;;;;;;14.33;13.03;;;10.80;99.90;;;;;;4971596;28;20198;-82
2022/10/28 02:38:11;;;;;;;12.47;11.53;;;10.70;99.90;;;;;;4953459;28;20312;-83
2022/10/28 02:40:39;;;;;;;13.90;12.60;;;10.80;99.90;;;;;;4952946;28;20206;-83
2022/10/28 02:43:09;;;;;;;13.47;12.47;;;10.70;99.90;;;;;;4967197;28;20198;-82
2022/10/28 02:45:40;;;;;;;14.00;12.70;;;10.70;99.90;;;;;;4948091;28;20197;-82
2022/10/28 02:48:11;;;;;;;13.30;12.10;;;10.70;99.90;;;;;;4977608;28;20198;-83
2022/10/28 02:50:42;;;;;;;13.23;12.13;;;10.60;99.90;;;;;;4971484;28;20221;-86
2022/10/28 02:53:13;;;;;;;14.00;12.70;;;10.60;99.90;;;;;;4986939;28;20204;-85
2022/10/28 02:55:43;;;;;;;14.83;13.53;;;10.60;99.90;;;;;;4990730;28;20256;-85
2022/10/28 02:58:11;;;;;;;13.90;12.70;;;10.50;99.90;;;;;;4972646;28;20210;-84
2022/10/28 03:00:43;;;;;;;15.13;13.83;;;10.50;99.90;;;;;;4966493;28;20214;-85
2022/10/28 03:03:11;;;;;;;14.20;13.10;;;10.50;99.90;;;;;;4988317;28;20469;-85
2022/10/28 03:05:38;;;;;;;14.47;13.17;;;10.50;99.90;;;;;;4966073;28;20206;-84
2022/10/28 03:08:05;;;;;;;13.53;12.50;;;10.50;99.90;;;;;;4983843;28;20659;-85
2022/10/28 03:10:32;;;;;;;14.57;13.40;;;10.60;99.90;;;;;;4966226;28;20248;-85
2022/10/28 03:12:59;;;;;;;14.97;13.70;;;10.60;99.90;;;;;;4965840;28;20197;-84
2022/10/28 03:15:26;;;;;;;14.07;13.07;;;10.60;99.90;;;;;;4963901;28;20202;-85
2022/10/28 03:17:53;;;;;;;15.53;14.27;;;10.60;99.90;;;;;;4956856;28;20211;-82
2022/10/28 03:20:21;;;;;;;15.40;14.20;;;10.60;99.90;;;;;;4978552;28;20214;-83
2022/10/28 03:22:48;;;;;;;15.53;14.20;;;10.60;99.90;;;;;;4958586;28;20202;-83
2022/10/28 03:25:15;;;;;;;15.30;14.10;;;10.50;99.90;;;;;;4959111;28;20202;-85
2022/10/28 03:27:41;;;;;;;15.27;14.10;;;10.60;99.90;;;;;;4979520;28;20200;-85
2022/10/28 03:30:09;;;;;;;14.47;13.47;;;10.60;99.90;;;;;;4962544;28;20226;-84
2022/10/28 03:32:36;;;;;;;15.03;13.73;;;10.60;99.90;;;;;;4959405;28;20198;-84
2022/10/28 03:35:03;;;;;;;15.33;14.13;;;10.60;99.90;;;;;;4960954;28;20206;-83
2022/10/28 03:37:31;;;;;;;15.60;14.30;;;10.60;99.90;;;;;;4949834;28;20222;-83
2022/10/28 03:40:01;;;;;;;15.50;14.37;;;10.70;99.90;;;;;;4965670;28;20225;-85
2022/10/28 03:42:28;;;;;;;15.00;13.90;;;10.80;99.90;;;;;;4963488;28;20198;-84
2022/10/28 03:44:55;;;;;;;13.87;12.77;;;10.80;99.90;;;;;;4956053;28;20574;-84
2022/10/28 03:47:21;;;;;;;15.20;14.00;;;11.00;99.90;;;;;;4952939;28;20589;-85
2022/10/28 03:49:48;;;;;;;14.10;13.17;;;11.00;99.90;;;;;;4952885;28;20268;-84
2022/10/28 03:52:15;;;;;;;15.20;13.93;;;11.00;99.90;;;;;;4953900;28;20559;-83
2022/10/28 03:54:43;;;;;;;13.87;12.87;;;11.10;99.90;;;;;;4956166;29;20604;-84
2022/10/28 03:57:10;;;;;;;14.10;13.10;;;11.20;99.90;;;;;;4976439;28;20206;-84
2022/10/28 03:59:37;;;;;;;14.43;13.43;;;11.20;99.90;;;;;;4956521;28;20231;-85
2022/10/28 04:02:04;;;;;;;16.10;14.90;;;11.20;99.90;;;;;;4974918;28;20206;-84
2022/10/28 04:04:31;;;;;;;15.07;13.87;;;11.30;99.90;;;;;;4968628;28;20194;-84
2022/10/28 04:06:58;;;;;;;16.47;15.20;;;11.30;99.90;;;;;;4979607;28;20199;-84
2022/10/28 04:09:24;;;;;;;16.10;14.80;;;11.40;99.90;;;;;;4982090;28;20221;-84
2022/10/28 04:11:52;;;;;;;16.93;15.53;;;11.50;99.90;;;;;;4982852;28;20249;-84
2022/10/28 04:14:19;;;;;;;17.10;15.90;;;11.50;99.90;;;;;;4975007;28;20210;-84
2022/10/28 04:16:46;;;;;;;17.47;15.47;;;11.50;99.90;;;;;;4959686;28;20200;-84
2022/10/28 04:19:13;;;;;;;16.90;15.50;;;11.50;99.90;;;;;;4974137;28;20691;-83
2022/10/28 04:21:40;;;;;;;17.23;15.90;;;11.60;99.90;;;;;;4957073;28;20222;-85
2022/10/28 04:24:07;;;;;;;15.60;14.40;;;11.60;99.90;;;;;;4954651;28;20199;-83
2022/10/28 04:26:34;;;;;;;8.10;7.37;;;11.70;99.90;;;;;;4956286;28;20203;-84
2022/10/28 04:29:02;;;;;;;7.90;7.10;;;11.70;99.90;;;;;;4974350;28;20227;-83
2022/10/28 04:31:29;;;;;;;6.57;5.93;;;11.70;99.90;;;;;;4973236;28;20225;-84
2022/10/28 04:33:56;;;;;;;7.73;5.47;;;11.80;99.90;;;;;;4957269;28;20199;-83
2022/10/28 04:36:23;;;;;;;6.80;6.10;;;11.80;99.90;;;;;;4952797;28;20205;-83
2022/10/28 04:38:50;;;;;;;5.97;5.17;;;11.80;99.90;;;;;;4967838;28;20213;-83
2022/10/28 04:41:17;;;;;;;11.83;10.70;;;11.90;99.90;;;;;;4952474;28;20221;-83
2022/10/28 04:43:44;;;;;;;14.20;13.00;;;11.90;99.90;;;;;;4972268;28;20214;-83
2022/10/28 04:46:12;;;;;;;12.57;11.47;;;11.90;99.90;;;;;;4958775;28;20212;-84
2022/10/28 04:48:39;;;;;;;6.97;5.50;;;11.90;99.90;;;;;;4960479;28;20729;-84
2022/10/28 04:51:06;;;;;;;11.47;9.57;;;11.90;99.90;;;;;;4957801;28;20290;-84
2022/10/28 04:53:33;;;;;;;14.40;13.40;;;12.00;99.90;;;;;;4959973;28;20205;-83
2022/10/28 04:56:00;;;;;;;15.37;14.20;;;12.00;99.90;;;;;;4958778;28;20207;-84
2022/10/28 04:58:27;;;;;;;14.33;13.20;;;12.00;99.90;;;;;;4969562;28;20223;-83
2022/10/28 05:00:54;;;;;;;14.63;13.43;;;12.00;99.90;;;;;;4970999;28;20738;-83
2022/10/28 05:03:22;;;;;;;15.23;13.53;;;11.90;99.90;;;;;;4978087;28;20683;-84
2022/10/28 05:05:49;;;;;;;15.07;14.07;;;11.90;99.90;;;;;;4948917;28;20236;-83
2022/10/28 05:08:16;;;;;;;15.50;14.30;;;11.90;99.90;;;;;;4951928;28;20227;-84
2022/10/28 05:10:44;;;;;;;15.93;14.80;;;11.90;99.90;;;;;;4972925;28;20188;-83
2022/10/28 05:13:10;;;;;;;16.73;15.53;;;11.90;99.90;;;;;;4952412;28;20207;-83
2022/10/28 05:15:37;;;;;;;15.40;14.30;;;11.90;99.90;;;;;;4968731;28;20277;-84
2022/10/28 05:18:04;;;;;;;15.43;14.33;;;11.90;99.90;;;;;;4952480;28;20202;-84
2022/10/28 05:20:32;;;;;;;16.50;15.37;;;11.80;99.90;;;;;;4973216;28;20583;-83
2022/10/28 05:22:59;;;;;;;14.60;13.60;;;11.80;99.90;;;;;;4973934;28;20609;-83
2022/10/28 05:25:26;;;;;;;15.40;14.17;;;11.80;99.90;;;;;;4973272;28;20590;-83
2022/10/28 05:27:53;;;;;;;15.50;14.27;;;11.80;99.90;;;;;;4957306;28;20211;-84
2022/10/28 05:30:20;;;;;;;15.20;14.10;;;11.70;99.90;;;;;;4955074;28;20668;-84
2022/10/28 05:32:47;;;;;;;15.93;14.50;;;11.70;99.90;;;;;;4971604;28;20250;-84
2022/10/28 05:35:14;;;;;;;14.70;13.60;;;11.70;99.90;;;;;;4953790;28;20208;-84
2022/10/28 05:37:43;;;;;;;15.63;14.40;;;11.70;99.90;;;;;;4962483;28;20203;-84
2022/10/28 05:40:11;;;;;;;15.90;14.60;;;11.70;99.90;;;;;;4952488;28;20644;-84
2022/10/28 05:42:41;;;;;;;16.53;15.23;;;11.80;99.90;;;;;;4963729;28;20212;-84
2022/10/28 05:45:08;;;;;;;16.43;15.17;;;11.80;99.90;;;;;;4981812;28;20231;-84
2022/10/28 05:47:35;;;;;;;16.83;15.47;;;11.90;99.90;;;;;;4945086;28;20202;-83
2022/10/28 05:50:02;;;;;;;16.83;15.63;;;11.90;99.90;;;;;;4951724;28;20704;-84
2022/10/28 05:52:29;;;;;;;17.30;16.10;;;11.90;99.90;;;;;;4977809;28;20189;-84
2022/10/28 05:54:57;;;;;;;17.03;15.33;;;12.00;99.90;;;;;;4969158;28;20664;-84
2022/10/28 05:57:24;;;;;;;17.67;16.00;;;12.00;99.90;;;;;;4952007;28;20290;-84
2022/10/28 05:59:51;;;;;;;17.77;16.37;;;12.00;99.90;;;;;;4960264;28;20220;-84
2022/10/28 06:02:18;;;;;;;16.27;15.07;;;12.00;99.90;;;;;;4982610;28;20723;-84
2022/10/28 06:04:45;;;;;;;17.50;16.03;;;12.10;99.90;;;;;;4984636;28;20206;-84
2022/10/28 06:07:11;;;;;;;16.40;15.10;;;12.10;99.90;;;;;;4968669;28;20204;-85
2022/10/28 06:09:38;;;;;;;16.90;15.70;;;12.10;99.90;;;;;;4955846;28;20230;-84
2022/10/28 06:12:08;;;;;;;16.80;15.40;;;12.10;99.90;;;;;;4958821;28;20242;-84
2022/10/28 06:14:35;;;;;;;16.83;15.67;;;12.10;99.90;;;;;;4959744;28;20197;-84
2022/10/28 06:17:01;;;;;;;17.07;15.67;;;12.10;99.90;;;;;;4976760;28;20255;-84
2022/10/28 06:19:28;;;;;;;17.20;15.90;;;12.10;99.90;;;;;;4972516;28;20219;-84
2022/10/28 06:21:55;;;;;;;16.90;15.40;;;12.20;99.90;;;;;;4970343;28;20708;-84
2022/10/28 06:24:22;;;;;;;17.13;15.67;;;12.20;99.90;;;;;;4974564;28;20296;-84
2022/10/28 06:26:49;;;;;;;17.43;15.80;;;12.20;99.90;;;;;;4954454;28;20201;-84
2022/10/28 06:29:17;;;;;;;17.50;15.90;;;12.20;99.90;;;;;;4968490;28;20216;-84
2022/10/28 06:31:44;;;;;;;15.73;14.53;;;12.20;99.90;;;;;;4968142;28;20197;-84
2022/10/28 06:34:12;;;;;;;16.57;15.17;;;12.20;99.90;;;;;;4957895;28;20261;-84
2022/10/28 06:36:39;;;;;;;17.80;16.30;;;12.30;99.90;;;;;;4953175;28;20225;-84
2022/10/28 06:39:06;;;;;;;17.67;15.87;;;12.30;99.90;;;;;;4959572;28;20222;-84
2022/10/28 06:41:34;;;;;;;12.03;10.93;;;12.30;99.90;;;;;;4959555;28;20216;-83
2022/10/28 06:44:01;;;;;;;8.13;7.40;;;12.40;99.90;;;;;;4962370;28;20217;-84
2022/10/28 06:46:30;;;;;;;6.90;6.20;;;12.40;99.90;;;;;;4951396;28;20203;-84
2022/10/28 06:48:57;;;;;;;7.37;6.67;;;12.40;99.90;;;;;;4958868;28;20329;-84
2022/10/28 06:51:24;;;;;;;12.03;10.83;;;12.50;99.90;;;;;;4970675;28;20593;-84
2022/10/28 06:53:52;;;;;;;10.03;8.17;;;12.50;99.90;;;;;;4955585;28;20255;-84
2022/10/28 06:56:19;;;;;;;10.70;8.77;;;12.50;99.90;;;;;;4959275;28;20205;-84
2022/10/28 06:58:50;;;;;;;11.33;10.30;;;12.60;99.90;;;;;;4958805;28;20233;-84
2022/10/28 07:01:17;;;;;;;16.07;14.80;;;12.60;99.90;;;;;;4975631;28;20248;-84
2022/10/28 07:03:46;;;;;;;15.40;14.20;;;12.70;99.90;;;;;;4958009;28;20209;-84
2022/10/28 07:06:13;;;;;;;15.13;13.87;;;12.70;99.90;;;;;;4976251;28;20205;-84
2022/10/28 07:08:39;;;;;;;14.10;12.90;;;12.80;99.90;;;;;;4958485;28;20292;-84
2022/10/28 07:11:06;;;;;;;13.13;11.87;;;12.90;99.90;;;;;;4955904;28;20269;-84
2022/10/28 07:13:34;;;;;;;13.93;12.90;;;12.90;99.90;;;;;;4955953;28;20198;-84
2022/10/28 07:16:01;;;;;;;14.13;13.13;;;13.00;99.90;;;;;;4950655;28;20202;-84
2022/10/28 07:18:29;;;;;;;13.00;11.90;;;13.10;99.90;;;;;;4972807;28;20226;-84
2022/10/28 07:20:59;;;;;;;15.97;14.70;;;13.10;99.90;;;;;;4958589;28;20210;-84
2022/10/28 07:23:26;;;;;;;14.93;13.83;;;13.30;99.90;;;;;;4955473;28;20212;-84
2022/10/28 07:25:54;;;;;;;14.77;13.57;;;13.30;99.90;;;;;;4980546;28;20787;-84
2022/10/28 07:28:21;;;;;;;15.37;14.07;;;13.40;99.90;;;;;;4965099;28;20698;-84
2022/10/28 07:30:48;;;;;;;8.70;5.67;;;13.60;99.90;;;;;;4958047;28;20198;-84
2022/10/28 07:33:15;;;;;;;8.30;6.00;;;13.60;99.90;;;;;;4958076;28;20198;-84
2022/10/28 07:35:43;;;;;;;7.53;5.20;;;13.70;99.90;;;;;;4945377;28;20218;-84
2022/10/28 07:38:11;;;;;;;8.53;5.00;;;13.70;99.90;;;;;;4952717;28;20205;-82
2022/10/28 07:40:38;;;;;;;11.23;5.33;;;13.70;99.90;;;;;;4976370;28;20206;-84
2022/10/28 07:43:05;;;;;;;7.63;5.10;;;13.80;99.90;;;;;;4979818;28;20219;-84
2022/10/28 07:45:33;;;;;;;6.37;5.23;;;13.80;99.90;;;;;;4951213;28;20206;-85
2022/10/28 07:48:00;;;;;;;5.47;4.73;;;13.90;99.90;;;;;;4976472;28;20193;-84
2022/10/28 07:50:27;;;;;;;5.60;4.83;;;13.90;99.90;;;;;;4946206;29;20265;-84
2022/10/28 07:52:54;;;;;;;5.07;4.50;;;14.10;99.90;;;;;;4956804;28;20659;-84
2022/10/28 07:55:22;;;;;;;5.37;4.50;;;14.10;99.90;;;;;;4971064;28;20204;-84
2022/10/28 07:57:49;;;;;;;13.20;12.13;;;14.20;99.90;;;;;;4962411;28;20589;-84
2022/10/28 08:00:16;;;;;;;13.83;12.83;;;14.30;99.90;;;;;;4979148;28;20715;-84
2022/10/28 08:02:43;;;;;;;13.23;12.27;;;14.40;99.90;;;;;;4956583;28;20214;-84
2022/10/28 08:05:10;;;;;;;13.47;12.57;;;14.50;99.90;;;;;;4978086;28;20202;-85
2022/10/28 08:07:37;;;;;;;13.53;12.63;;;14.60;99.90;;;;;;4959391;28;20207;-84
2022/10/28 08:10:04;;;;;;;14.00;13.00;;;14.70;99.90;;;;;;4974888;28;20217;-84
2022/10/28 08:12:33;;;;;;;12.10;11.20;;;14.80;99.90;;;;;;4963224;28;20633;-85
2022/10/28 08:15:01;;;;;;;13.70;12.80;;;14.90;99.90;;;;;;4961923;28;20577;-85
2022/10/28 08:17:28;;;;;;;5.97;4.70;;;15.00;99.90;;;;;;4960042;28;20204;-85
2022/10/28 08:19:55;;;;;;;11.73;10.77;;;15.00;99.90;;;;;;4950958;28;20260;-85
2022/10/28 08:22:22;;;;;;;11.50;10.70;;;15.10;99.90;;;;;;4973338;28;20227;-86
2022/10/28 08:24:49;;;;;;;10.73;9.83;;;15.10;99.90;;;;;;4956006;28;20209;-85
2022/10/28 08:27:16;;;;;;;9.73;9.00;;;15.20;99.90;;;;;;4974905;28;20210;-86
2022/10/28 08:29:44;;;;;;;9.00;8.30;;;15.30;99.90;;;;;;4971335;28;20800;-85
2022/10/28 08:32:11;;;;;;;9.10;8.40;;;15.30;99.90;;;;;;4971442;28;20211;-85
2022/10/28 08:34:38;;;;;;;12.23;11.33;;;15.50;99.90;;;;;;4955946;28;20676;-85
2022/10/28 08:37:05;;;;;;;9.77;8.87;;;15.60;99.90;;;;;;4977268;28;20582;-85
2022/10/28 08:39:31;;;;;;;8.30;5.87;;;15.70;99.90;;;;;;4979512;28;20232;-84
2022/10/28 08:42:15;;;;;;;7.80;5.13;;;15.80;99.90;;;;;;4982886;28;20218;-85
2022/10/28 08:44:57;;;;;;;7.17;5.73;;;15.90;99.90;;;;;;4972269;28;20207;-85
2022/10/28 08:47:37;;;;;;;8.17;7.37;;;16.10;99.90;;;;;;4956955;28;20225;-85
2022/10/28 08:50:11;;;;;;;6.00;4.70;;;16.20;99.90;;;;;;4958604;28;20236;-85
2022/10/28 08:52:44;;;;;;;5.97;5.30;;;16.40;99.90;;;;;;4950802;28;20683;-85
2022/10/28 08:55:16;;;;;;;5.73;4.80;;;16.50;99.90;;;;;;4971884;28;20202;-86
2022/10/28 08:57:48;;;;;;;9.80;9.00;;;16.60;99.90;;;;;;4975460;28;20208;-83
2022/10/28 09:00:22;;;;;;;5.30;4.10;;;16.80;99.90;;;;;;4956763;28;20822;-83
2022/10/28 09:02:57;;;;;;;5.83;4.40;;;16.90;99.90;;;;;;4948102;29;20213;-83
2022/10/28 09:05:25;;;;;;;6.93;5.40;;;17.00;99.90;;;;;;4970339;28;20666;-83
2022/10/28 09:07:53;;;;;;;6.40;5.80;;;17.20;99.90;;;;;;4960981;28;20285;-83
2022/10/28 09:10:35;;;;;;;12.47;11.50;;;17.30;99.90;;;;;;4945204;28;20233;-83
2022/10/28 09:13:11;;;;;;;4.93;4.10;;;17.30;99.90;;;;;;4971319;28;20201;-83
2022/10/28 09:15:47;;;;;;;10.70;9.87;;;17.50;99.90;;;;;;4973423;28;20273;-83
2022/10/28 09:18:19;;;;;;;4.73;3.70;;;17.60;99.90;;;;;;4960502;28;20698;-83
2022/10/28 09:20:52;;;;;;;3.70;3.37;;;17.70;99.90;;;;;;4966949;28;20596;-83
2022/10/28 09:23:23;;;;;;;11.00;10.10;;;17.80;99.90;;;;;;4952521;28;20222;-81
2022/10/28 09:26:08;;;;;;;4.80;3.50;;;18.00;99.90;;;;;;4977345;28;20195;-83
2022/10/28 09:28:48;;;;;;;10.33;9.60;;;18.00;99.90;;;;;;4967489;28;20230;-83
2022/10/28 09:31:24;;;;;;;6.17;4.67;;;18.10;99.90;;;;;;4972131;28;20199;-84
2022/10/28 09:34:01;;;;;;;10.93;10.17;;;18.10;99.90;;;;;;4955834;28;20682;-82
2022/10/28 09:36:33;;;;;;;7.00;6.37;;;18.10;99.90;;;;;;4972751;28;20210;-82
2022/10/28 09:39:01;;;;;;;7.37;3.90;;;18.00;99.90;;;;;;4956472;28;20259;-83
2022/10/28 09:41:32;;;;;;;5.20;4.37;;;18.10;99.90;;;;;;4956227;28;20197;-83
2022/10/28 09:44:07;;;;;;;6.50;4.17;;;18.10;99.90;;;;;;4975692;28;20203;-83
2022/10/28 09:46:36;;;;;;;7.37;6.77;;;18.00;99.90;;;;;;4967413;28;20204;-83
2022/10/28 09:49:05;;;;;;;10.03;7.07;;;18.00;99.90;;;;;;4950178;28;20599;-83
2022/10/28 09:51:42;;;;;;;6.37;3.83;;;17.90;99.90;;;;;;4958261;28;20235;-83
2022/10/28 09:54:11;;;;;;;8.70;7.80;;;17.90;99.90;;;;;;4975823;28;20201;-84
2022/10/28 09:56:39;;;;;;;10.80;9.90;;;17.80;99.90;;;;;;4958167;28;20199;-84
2022/10/28 09:59:07;;;;;;;10.83;10.03;;;17.70;99.90;;;;;;4957630;28;20232;-83
2022/10/28 10:01:37;;;;;;;11.20;10.40;;;17.70;99.90;;;;;;4957077;28;20211;-83
2022/10/28 10:04:17;;;;;;;10.90;10.00;;;17.70;99.90;;;;;;4957409;28;20637;-83
2022/10/28 10:06:47;;;;;;;10.80;10.10;;;17.70;99.90;;;;;;4957718;28;20198;-84
2022/10/28 10:09:20;;;;;;;12.30;11.40;;;17.80;99.90;;;;;;4972665;28;20230;-84
2022/10/28 10:11:49;;;;;;;8.17;7.47;;;17.90;99.90;;;;;;4949337;29;20216;-84
2022/10/28 10:14:21;;;;;;;10.23;9.33;;;18.00;99.90;;;;;;4971755;28;20756;-84
2022/10/28 10:16:53;;;;;;;8.53;7.80;;;18.10;99.90;;;;;;4967714;28;20204;-84
2022/10/28 10:19:20;;;;;;;10.63;9.93;;;18.20;99.90;;;;;;4973823;28;20595;-82
2022/10/28 10:21:49;;;;;;;4.50;3.70;;;18.30;99.90;;;;;;4955320;28;20692;-85
2022/10/28 10:24:29;;;;;;;10.43;9.57;;;18.50;99.90;;;;;;4943682;28;20252;-84
2022/10/28 10:26:57;;;;;;;9.47;8.67;;;18.70;99.90;;;;;;4949650;28;20267;-84
2022/10/28 10:29:25;;;;;;;4.07;3.67;;;19.00;99.90;;;;;;4957199;28;20228;-84
2022/10/28 10:32:07;;;;;;;6.00;5.40;;;19.10;99.90;;;;;;4948209;28;20201;-84
2022/10/28 10:34:35;;;;;;;4.87;3.80;;;19.30;99.90;;;;;;4974230;28;20280;-84
2022/10/28 10:37:03;;;;;;;7.10;6.40;;;19.50;99.90;;;;;;4957399;28;20202;-83
2022/10/28 10:39:35;;;;;;;11.63;10.73;;;19.70;99.90;;;;;;4973877;28;20221;-84
2022/10/28 10:42:02;;;;;;;4.97;3.80;;;19.80;99.90;;;;;;4955796;28;20236;-84
2022/10/28 10:44:32;;;;;;;4.63;4.10;;;19.90;99.90;;;;;;4972373;28;20461;-84
2022/10/28 10:47:21;;;;;;;5.60;4.80;;;19.90;99.90;;;;;;4949402;28;20198;-84
2022/10/28 10:49:50;;;;;;;5.00;4.10;;;20.00;99.90;;;;;;4964520;28;20225;-83
2022/10/28 10:52:21;;;;;;;10.40;9.60;;;20.20;99.90;;;;;;4973422;28;20198;-84
2022/10/28 10:55:01;;;;;;;6.73;6.17;;;20.20;99.90;;;;;;4966128;28;20194;-83
2022/10/28 10:57:28;;;;;;;9.43;8.83;;;20.40;99.90;;;;;;4973618;28;20194;-83
2022/10/28 10:59:57;;;;;;;8.83;8.23;;;20.60;99.90;;;;;;4968648;28;20222;-84
2022/10/28 11:02:28;;;;;;;8.27;7.47;;;20.70;99.90;;;;;;4956064;28;20222;-84
2022/10/28 11:04:59;;;;;;;3.70;3.40;;;20.80;99.90;;;;;;4968684;28;20660;-83
2022/10/28 11:07:27;;;;;;;4.03;3.60;;;20.80;99.90;;;;;;4972037;28;20219;-83
2022/10/28 11:09:55;;;;;;;5.40;3.70;;;20.80;99.90;;;;;;4946432;28;20222;-83
2022/10/28 11:12:28;;;;;;;4.37;3.90;;;20.70;99.90;;;;;;4973053;28;20206;-83
2022/10/28 11:14:57;;;;;;;7.33;6.27;;;20.70;99.90;;;;;;4962676;28;20265;-83
2022/10/28 11:17:27;;;;;;;7.10;6.47;;;20.60;99.90;;;;;;4954184;28;20590;-82
2022/10/28 11:19:57;;;;;;;6.30;5.70;;;20.60;99.90;;;;;;4950066;28;20218;-83
2022/10/28 11:22:34;;;;;;;5.40;4.00;;;20.50;99.90;;;;;;4974811;28;20245;-81
2022/10/28 11:25:35;;;;;;;3.70;3.17;;;20.50;99.90;;;;;;4941495;28;20261;-84
2022/10/28 11:28:35;;;;;;;3.57;3.23;;;20.40;99.90;;;;;;4957162;28;20205;-84
2022/10/28 11:31:18;;;;;;;8.50;7.80;;;20.40;99.90;;;;;;4953425;28;20213;-84
2022/10/28 11:33:55;;;;;;;8.30;7.70;;;20.40;99.90;;;;;;4964802;28;20187;-84
2022/10/28 11:36:28;;;;;;;5.63;4.73;;;20.40;99.90;;;;;;4973965;28;20197;-83
2022/10/28 11:39:11;;;;;;;4.93;3.67;;;20.50;99.90;;;;;;4949293;28;20639;-84
2022/10/28 11:41:50;;;;;;;4.83;3.50;;;20.50;99.90;;;;;;4958052;28;20214;-84
2022/10/28 11:44:29;;;;;;;7.83;7.33;;;20.60;99.90;;;;;;4948524;28;20214;-84
2022/10/28 11:47:06;;;;;;;3.90;3.47;;;20.70;99.90;;;;;;4956479;28;20209;-84
2022/10/28 11:50:04;;;;;;;7.23;6.53;;;20.80;99.90;;;;;;4949799;28;20229;-84
2022/10/28 11:52:47;;;;;;;6.17;5.70;;;20.90;99.90;;;;;;4964970;28;20214;-84
2022/10/28 11:55:22;;;;;;;9.63;8.73;;;21.00;99.90;;;;;;4955028;28;20210;-84
2022/10/28 11:58:01;;;;;;;8.97;8.07;;;21.00;99.90;;;;;;4956328;28;20365;-84
2022/10/28 12:00:50;;;;;;;9.47;8.67;;;21.00;99.90;;;;;;4957206;28;20206;-84
2022/10/28 12:03:39;;;;;;;9.10;8.40;;;20.90;99.90;;;;;;4971680;28;20206;-84
2022/10/28 12:06:15;;;;;;;8.27;7.47;;;20.90;99.90;;;;;;4953473;28;20206;-84
2022/10/28 12:08:56;;;;;;;8.93;8.03;;;20.90;99.90;;;;;;4971575;28;20217;-85
2022/10/28 12:11:37;;;;;;;9.67;8.63;;;20.80;99.90;;;;;;4965686;28;20201;-84
2022/10/28 12:14:15;;;;;;;10.13;9.23;;;20.80;99.90;;;;;;4955685;28;20206;-84
2022/10/28 12:16:49;;;;;;;10.67;9.67;;;20.80;99.90;;;;;;4973740;28;20671;-84
2022/10/28 12:19:19;;;;;;;11.43;10.63;;;20.80;99.90;;;;;;4956182;28;20226;-84
2022/10/28 12:22:01;;;;;;;9.03;4.53;;;20.70;99.90;;;;;;4965595;28;20198;-84
2022/10/28 12:24:30;;;;;;;5.00;4.17;;;20.70;99.90;;;;;;4940452;28;20214;-84
2022/10/28 12:27:04;;;;;;;7.43;4.30;;;20.70;99.90;;;;;;4952924;29;20195;-84
2022/10/28 12:29:36;;;;;;;6.30;4.50;;;20.70;99.90;;;;;;4968267;28;20229;-84
2022/10/28 12:32:06;;;;;;;8.63;5.20;;;20.70;99.90;;;;;;4951904;28;20198;-84
2022/10/28 12:34:38;;;;;;;7.47;6.03;;;20.60;99.90;;;;;;4969506;28;20194;-84
2022/10/28 12:37:11;;;;;;;5.47;4.00;;;20.50;99.90;;;;;;4957600;28;20209;-85
2022/10/28 12:39:44;;;;;;;5.93;4.60;;;20.60;99.90;;;;;;4970865;28;20304;-84
2022/10/28 12:42:15;;;;;;;7.53;4.40;;;20.80;99.90;;;;;;4952443;28;20210;-84
2022/10/28 12:44:43;;;;;;;7.90;4.63;;;20.80;99.90;;;;;;4969445;28;20305;-84
2022/10/28 12:47:19;;;;;;;4.83;4.17;;;20.90;99.90;;;;;;4955753;28;20194;-85
2022/10/28 12:50:00;;;;;;;6.70;5.10;;;21.00;99.90;;;;;;4951472;28;20225;-84
2022/10/28 12:52:40;;;;;;;7.23;6.07;;;21.00;99.90;;;;;;4954168;28;20202;-84